Time;durP1;ratioP1;P1;durP2;ratioP2;P2;SDS_P1;SDS_P2;PMS_P1;PMS_P2;Temp;Humidity;BMP_temperature;BMP_pressure;BME280_temperature;BME280_humidity;BME280_pressure;Samples;Min_cycle;Max_cycle;Signal;HPM_P1;HPM_P2
2023/07/04 00:00:17;;;;;;;4.57;3.72;;;;;;;13.23;100.00;101005.50;10257006;28;20054;-76
2023/07/04 00:05:18;;;;;;;9.45;3.40;;;;;;;13.24;100.00;101007.25;10258607;28;20046;-76
2023/07/04 00:10:20;;;;;;;11.40;3.78;;;;;;;13.24;100.00;101012.69;10240283;29;20044;-76
2023/07/04 00:15:20;;;;;;;2.50;2.08;;;;;;;13.23;100.00;101021.00;10256072;29;20372;-76
2023/07/04 00:20:20;;;;;;;9.68;1.67;;;;;;;13.21;100.00;101021.22;10256334;29;20031;-75
2023/07/04 00:25:23;;;;;;;8.27;2.72;;;;;;;13.13;100.00;101021.44;10258307;29;20030;-75
2023/07/04 00:30:25;;;;;;;7.38;2.95;;;;;;;13.02;100.00;101019.38;10256480;29;20038;-75
2023/07/04 00:35:26;;;;;;;7.65;1.95;;;;;;;13.02;100.00;101035.69;10271751;28;20094;-76
2023/07/04 00:40:26;;;;;;;6.47;3.38;;;;;;;13.11;100.00;101028.13;10255365;29;20066;-76
2023/07/04 00:45:27;;;;;;;9.07;2.65;;;;;;;13.20;100.00;101035.03;10256239;29;20465;-76
2023/07/04 00:50:31;;;;;;;9.55;3.15;;;;;;;13.29;100.00;101012.03;10255388;29;20101;-76
2023/07/04 00:55:32;;;;;;;14.43;3.42;;;;;;;13.29;100.00;101011.19;10254171;29;20052;-76
2023/07/04 01:00:33;;;;;;;8.27;2.70;;;;;;;13.25;100.00;101010.78;10223740;29;20110;-76
2023/07/04 01:05:41;;;;;;;5.72;2.22;;;;;;;13.21;100.00;101010.34;10238396;29;20143;-76
2023/07/04 01:10:44;;;;;;;13.07;2.67;;;;;;;13.13;100.00;101004.28;10238925;29;20121;-76
2023/07/04 01:15:44;;;;;;;17.50;3.63;;;;;;;13.04;100.00;101007.22;10239928;29;20114;-77
2023/07/04 01:20:46;;;;;;;6.35;3.55;;;;;;;13.06;100.00;101001.59;10255194;29;20118;-76
2023/07/04 01:26:15;;;;;;;12.80;3.33;;;;;;;13.04;100.00;101000.94;10222860;29;20094;-76
2023/07/04 01:31:15;;;;;;;16.45;3.40;;;;;;;13.02;100.00;101003.06;10253843;29;20042;-76
2023/07/04 01:36:16;;;;;;;7.38;2.63;;;;;;;12.90;100.00;101007.47;10256177;29;20062;-77
2023/07/04 01:41:16;;;;;;;9.32;2.10;;;;;;;12.79;100.00;101009.78;10254401;28;20110;-76
2023/07/04 01:46:17;;;;;;;11.80;3.10;;;;;;;12.70;100.00;100997.44;10253016;29;20221;-77
2023/07/04 01:51:35;;;;;;;7.35;2.97;;;;;;;12.70;100.00;101000.16;10253224;29;20055;-77
2023/07/04 01:56:37;;;;;;;11.57;2.10;;;;;;;12.73;100.00;101007.03;10253758;29;20050;-77
2023/07/04 02:01:38;;;;;;;10.80;2.97;;;;;;;12.84;100.00;100997.44;10252600;29;20527;-76
2023/07/04 02:06:38;;;;;;;7.50;2.78;;;;;;;13.03;100.00;100994.69;10254363;28;20122;-77
2023/07/04 02:11:39;;;;;;;4.97;2.40;;;;;;;13.23;100.00;100993.81;10268754;28;20047;-76
2023/07/04 02:16:39;;;;;;;5.78;1.98;;;;;;;13.39;100.00;100992.53;10253577;28;20071;-76
2023/07/04 02:21:39;;;;;;;1.85;1.73;;;;;;;13.44;100.00;100999.03;10253380;29;20372;-76
2023/07/04 02:26:40;;;;;;;8.00;2.20;;;;;;;13.45;100.00;101003.41;10252325;29;20062;-72
2023/07/04 02:31:40;;;;;;;4.85;2.83;;;;;;;13.40;100.00;101005.94;10252163;28;20055;-71
2023/07/04 02:36:41;;;;;;;6.35;2.28;;;;;;;13.30;100.00;101001.97;10251745;29;20039;-71
2023/07/04 02:41:41;;;;;;;20.33;3.25;;;;;;;13.11;100.00;101004.47;10251164;29;20030;-71
2023/07/04 02:46:41;;;;;;;5.28;2.33;;;;;;;13.04;100.00;101022.69;10250951;29;20039;-71
2023/07/04 02:51:42;;;;;;;5.65;3.72;;;;;;;12.96;100.00;101017.50;10233800;29;20416;-71
2023/07/04 02:56:43;;;;;;;22.85;3.42;;;;;;;12.87;100.00;101013.31;10250282;29;20168;-71
2023/07/04 03:01:44;;;;;;;3.10;2.22;;;;;;;12.92;100.00;101008.06;10251596;29;20027;-71
2023/07/04 03:06:45;;;;;;;7.53;2.50;;;;;;;12.94;100.00;101009.53;10251868;28;20047;-71
2023/07/04 03:11:45;;;;;;;6.50;2.15;;;;;;;12.94;100.00;101011.41;10258362;28;20399;-71
2023/07/04 03:16:46;;;;;;;7.43;2.83;;;;;;;12.93;100.00;101004.31;10250339;28;20067;-71
2023/07/04 03:21:46;;;;;;;11.75;2.60;;;;;;;12.95;100.00;101013.91;10249379;29;20118;-71
2023/07/04 03:26:46;;;;;;;22.75;3.85;;;;;;;12.95;100.00;101015.81;10250617;28;20082;-71
2023/07/04 03:31:47;;;;;;;13.45;3.00;;;;;;;12.98;100.00;101009.94;10249880;28;20039;-71
2023/07/04 03:36:47;;;;;;;13.65;4.28;;;;;;;13.05;100.00;101021.66;10257306;29;20058;-71
2023/07/04 03:41:48;;;;;;;9.70;2.65;;;;;;;13.15;100.00;101022.06;10273064;28;20039;-70
2023/07/04 03:46:48;;;;;;;5.00;3.17;;;;;;;13.19;100.00;101017.88;10239848;29;20073;-70
2023/07/04 03:51:48;;;;;;;4.90;2.88;;;;;;;13.28;100.00;101012.25;10238879;29;20051;-70
2023/07/04 03:56:49;;;;;;;8.35;2.42;;;;;;;13.35;100.00;101013.91;10255175;29;20035;-70
2023/07/04 04:01:49;;;;;;;2.70;1.92;;;;;;;13.52;100.00;101016.97;10239998;29;20333;-70
2023/07/04 04:06:51;;;;;;;7.55;2.75;;;;;;;13.64;100.00;101018.00;10255966;29;20058;-70
2023/07/04 04:11:52;;;;;;;6.20;3.22;;;;;;;13.78;100.00;101024.22;10256131;28;20395;-70
2023/07/04 04:16:52;;;;;;;13.18;3.92;;;;;;;13.89;100.00;101014.56;10255899;28;20039;-71
2023/07/04 04:21:53;;;;;;;8.85;3.67;;;;;;;14.01;100.00;101014.69;10256388;29;20043;-71
2023/07/04 04:26:53;;;;;;;3.92;2.72;;;;;;;14.14;100.00;101023.63;10254793;29;20039;-70
2023/07/04 04:31:55;;;;;;;10.43;2.60;;;;;;;14.22;100.00;101027.16;10256012;28;20032;-69
2023/07/04 04:36:56;;;;;;;6.20;2.67;;;;;;;14.29;100.00;101036.09;10255610;28;20039;-69
2023/07/04 04:41:56;;;;;;;22.90;2.88;;;;;;;14.28;100.00;101032.56;10255010;29;20035;-69
2023/07/04 04:46:58;;;;;;;4.35;2.28;;;;;;;14.33;100.00;101032.75;10254269;28;20046;-68
2023/07/04 04:51:58;;;;;;;5.05;2.20;;;;;;;14.50;100.00;101027.59;10256665;28;20106;-69
2023/07/04 04:56:59;;;;;;;6.75;3.17;;;;;;;14.78;100.00;101032.66;10255051;29;20497;-71
2023/07/04 05:01:59;;;;;;;12.15;3.72;;;;;;;15.42;100.00;101032.50;10253489;29;20043;-70
2023/07/04 05:07:00;;;;;;;10.40;2.53;;;;;;;16.00;100.00;101027.41;10253365;29;20054;-71
2023/07/04 05:12:03;;;;;;;6.75;2.83;;;;;;;15.98;100.00;101040.44;10254591;29;20463;-71
2023/07/04 05:17:03;;;;;;;11.35;3.83;;;;;;;15.95;100.00;101046.41;10254414;28;20043;-71
2023/07/04 05:22:04;;;;;;;7.30;2.72;;;;;;;15.88;100.00;101036.59;10268891;28;20452;-71
2023/07/04 05:27:04;;;;;;;8.77;2.50;;;;;;;15.78;100.00;101039.88;10253245;28;20074;-71
2023/07/04 05:32:05;;;;;;;5.45;2.97;;;;;;;16.46;100.00;101055.13;10252582;29;20456;-71
2023/07/04 05:37:06;;;;;;;7.13;1.98;;;;;;;16.64;100.00;101048.78;10251402;29;20118;-70
2023/07/04 05:42:06;;;;;;;7.05;2.70;;;;;;;16.66;100.00;101055.69;10256466;29;20031;-71
2023/07/04 05:47:06;;;;;;;7.38;2.95;;;;;;;16.79;100.00;101053.84;10253213;28;20039;-70
2023/07/04 05:52:07;;;;;;;4.85;3.15;;;;;;;17.57;100.00;101063.63;10251647;28;20095;-70
2023/07/04 05:57:07;;;;;;;15.65;3.88;;;;;;;17.51;100.00;101059.94;10252127;28;20383;-70
2023/07/04 06:02:08;;;;;;;4.93;2.45;;;;;;;17.35;100.00;101061.47;10236158;29;20393;-70
2023/07/04 06:07:08;;;;;;;12.88;3.67;;;;;;;17.45;100.00;101066.34;10253228;29;20484;-70
2023/07/04 06:12:09;;;;;;;7.35;3.28;;;;;;;17.27;100.00;101069.25;10252463;29;20074;-70
2023/07/04 06:17:09;;;;;;;8.15;3.38;;;;;;;17.13;100.00;101079.56;10252472;28;20067;-70
2023/07/04 06:22:10;;;;;;;12.02;3.25;;;;;;;17.10;100.00;101086.38;10251440;29;20118;-70
2023/07/04 06:27:10;;;;;;;11.50;3.22;;;;;;;16.99;100.00;101091.81;10249734;29;20095;-70
2023/07/04 06:32:11;;;;;;;15.68;3.35;;;;;;;16.96;100.00;101098.59;10250921;29;20032;-70
2023/07/04 06:37:11;;;;;;;4.72;3.05;;;;;;;17.07;100.00;101107.88;10250868;29;20391;-70
2023/07/04 06:42:11;;;;;;;9.75;3.45;;;;;;;17.05;100.00;101105.38;10250520;29;20475;-70
2023/07/04 06:47:12;;;;;;;8.80;2.45;;;;;;;16.86;100.00;101104.63;10251005;29;20062;-70
2023/07/04 06:52:12;;;;;;;9.82;3.47;;;;;;;16.84;100.00;101108.66;10251429;29;20079;-70
2023/07/04 06:57:12;;;;;;;6.22;2.78;;;;;;;17.59;100.00;101110.78;10251017;29;20566;-70
2023/07/04 07:02:13;;;;;;;4.45;3.13;;;;;;;19.16;100.00;101105.94;10250449;29;20031;-70
2023/07/04 07:07:14;;;;;;;12.30;2.92;;;;;;;19.03;100.00;101109.84;10252607;28;20054;-71
2023/07/04 07:12:14;;;;;;;9.25;3.85;;;;;;;20.10;100.00;101113.34;10259581;28;20028;-70
2023/07/04 07:17:15;;;;;;;6.03;2.35;;;;;;;20.96;100.00;101124.50;10258467;29;20069;-70
2023/07/04 07:22:16;;;;;;;3.13;2.50;;;;;;;20.82;100.00;101132.38;10256834;29;20129;-70
2023/07/04 07:27:16;;;;;;;12.07;3.35;;;;;;;20.76;100.00;101127.06;10256855;29;20130;-71
2023/07/04 07:32:17;;;;;;;2.75;2.55;;;;;;;19.91;100.00;101132.06;10257945;29;20054;-70
2023/07/04 07:37:19;;;;;;;5.28;2.30;;;;;;;19.24;100.00;101139.31;10257779;28;20035;-70
2023/07/04 07:42:19;;;;;;;6.57;3.10;;;;;;;19.21;100.00;101144.47;10257787;28;20038;-70
2023/07/04 07:47:20;;;;;;;4.95;2.13;;;;;;;19.08;100.00;101122.81;10256822;29;20372;-70
2023/07/04 07:52:20;;;;;;;7.40;2.78;;;;;;;19.17;100.00;101141.38;10272681;28;20064;-70
2023/07/04 07:57:21;;;;;;;10.82;2.05;;;;;;;19.38;100.00;101139.81;10256244;29;20122;-70
2023/07/04 08:02:21;;;;;;;9.93;2.42;;;;;;;20.08;100.00;101145.78;10256645;29;20439;-70
2023/07/04 08:07:21;;;;;;;5.18;2.30;;;;;;;20.05;100.00;101147.13;10255177;29;20110;-73
2023/07/04 08:12:22;;;;;;;4.93;2.97;;;;;;;20.89;100.00;101144.00;10256195;28;20035;-70
2023/07/04 08:17:22;;;;;;;12.32;3.90;;;;;;;23.06;100.00;101156.00;10257110;28;20063;-70
2023/07/04 08:22:23;;;;;;;8.20;2.25;;;;;;;22.71;100.00;101163.09;10255089;29;20394;-70
2023/07/04 08:27:25;;;;;;;5.55;3.13;;;;;;;23.21;100.00;101143.03;10256121;28;20035;-70
2023/07/04 08:32:27;;;;;;;8.43;2.63;;;;;;;23.53;100.00;101152.13;10255794;28;20036;-70
2023/07/04 08:37:27;;;;;;;7.20;2.80;;;;;;;23.79;100.00;101151.00;10255265;28;20050;-70
2023/07/04 08:42:28;;;;;;;8.02;3.10;;;;;;;23.79;100.00;101147.41;10255324;29;20046;-70
2023/07/04 08:47:29;;;;;;;10.63;2.90;;;;;;;23.78;100.00;101157.66;10222195;29;20031;-70
2023/07/04 08:52:35;;;;;;;7.43;3.38;;;;;;;24.46;100.00;101164.63;10255142;28;20082;-70
2023/07/04 08:57:47;;;;;;;9.60;2.60;;;;;;;23.63;100.00;101160.41;10253804;29;20050;-70
2023/07/04 09:03:03;;;;;;;9.10;3.10;;;;;;;22.60;100.00;101180.72;10254800;28;20395;-70
2023/07/04 09:08:12;;;;;;;14.47;3.50;;;;;;;23.15;100.00;101181.97;10253749;29;20032;-70
2023/07/04 09:13:45;;;;;;;16.42;3.40;;;;;;;23.91;100.00;101194.97;10253719;28;20035;-70
2023/07/04 09:18:54;;;;;;;8.95;2.58;;;;;;;23.53;100.00;101186.13;10234741;29;20051;-70
2023/07/04 09:23:58;;;;;;;14.05;3.78;;;;;;;23.18;100.00;101200.75;10254255;29;20106;-70
2023/07/04 09:28:58;;;;;;;4.80;2.83;;;;;;;21.94;100.00;101206.84;10236685;28;20027;-70
2023/07/04 09:34:01;;;;;;;3.15;2.63;;;;;;;20.90;100.00;101205.41;10252202;29;20439;-70
2023/07/04 09:39:04;;;;;;;7.78;2.55;;;;;;;20.18;100.00;101207.25;10220501;29;20045;-70
2023/07/04 09:44:28;;;;;;;5.97;3.22;;;;;;;20.10;100.00;101212.34;10254460;29;20039;-70
2023/07/04 09:49:30;;;;;;;9.45;2.63;;;;;;;21.57;100.00;101226.19;10252411;28;20043;-71
2023/07/04 09:54:33;;;;;;;9.38;3.22;;;;;;;21.92;100.00;101225.63;10253891;28;20062;-70
2023/07/04 09:59:33;;;;;;;5.95;3.80;;;;;;;23.77;100.00;101224.28;10236255;29;20038;-71
2023/07/04 10:04:35;;;;;;;5.07;2.58;;;;;;;23.94;100.00;101235.06;10251123;29;20070;-70
2023/07/04 10:09:35;;;;;;;14.60;2.75;;;;;;;24.04;100.00;101238.63;10234514;29;20536;-71
2023/07/04 10:14:36;;;;;;;12.82;3.13;;;;;;;24.65;100.00;101239.59;10235216;29;20106;-71
2023/07/04 10:19:42;;;;;;;2.42;2.22;;;;;;;23.53;100.00;101238.66;10252692;28;20058;-71
2023/07/04 10:24:43;;;;;;;2.27;2.03;;;;;;;22.65;100.00;101245.03;10251289;29;20063;-71
2023/07/04 10:29:48;;;;;;;3.28;2.35;;;;;;;22.52;100.00;101240.84;10252201;28;20070;-71
2023/07/04 10:34:49;;;;;;;4.25;3.40;;;;;;;23.27;100.00;101231.44;10251575;29;20041;-71
2023/07/04 10:39:55;;;;;;;2.83;2.38;;;;;;;24.48;100.00;101232.47;10234268;29;20045;-71
2023/07/04 10:44:55;;;;;;;2.70;1.55;;;;;;;25.41;100.00;101235.56;10234637;29;20035;-71
2023/07/04 10:50:09;;;;;;;2.10;1.50;;;;;;;26.13;100.00;101239.38;10250938;29;20497;-71
2023/07/04 10:55:25;;;;;;;6.43;2.58;;;;;;;25.99;89.01;101238.41;10250863;29;20483;-71
2023/07/04 11:00:39;;;;;;;2.15;1.95;;;;;;;25.79;79.51;101242.16;10251615;29;20036;-72
2023/07/04 11:05:45;;;;;;;5.70;2.28;;;;;;;25.43;88.91;101238.84;10234202;29;20391;-72
2023/07/04 11:10:48;;;;;;;4.53;2.70;;;;;;;25.28;92.07;101248.94;10218648;29;20035;-72
2023/07/04 11:15:56;;;;;;;2.00;1.60;;;;;;;26.31;88.35;101254.41;10251257;28;20035;-71
2023/07/04 11:21:17;;;;;;;2.00;1.90;;;;;;;26.48;90.68;101244.78;10234234;29;20086;-72
2023/07/04 11:26:18;;;;;;;2.97;1.98;;;;;;;24.76;92.88;101246.72;10250375;29;20043;-72
2023/07/04 11:31:24;;;;;;;7.63;1.88;;;;;;;23.92;85.88;101248.34;10249635;28;20362;-72
2023/07/04 11:36:42;;;;;;;4.72;2.28;;;;;;;24.23;82.03;101251.88;10250926;28;20429;-72
2023/07/04 11:41:42;;;;;;;3.67;2.70;;;;;;;24.18;72.08;101240.81;10250919;29;20043;-72
2023/07/04 11:46:43;;;;;;;5.20;1.65;;;;;;;24.67;66.75;101242.91;10249461;29;20113;-72
2023/07/04 11:51:43;;;;;;;7.15;1.65;;;;;;;25.40;77.51;101247.75;10250300;28;20060;-72
2023/07/04 11:56:43;;;;;;;2.10;1.70;;;;;;;26.14;67.64;101237.41;10256291;29;20039;-72
2023/07/04 12:02:05;;;;;;;4.65;2.05;;;;;;;26.46;68.23;101247.88;10256697;29;20376;-72
2023/07/04 12:07:19;;;;;;;2.75;2.53;;;;;;;26.76;53.76;101243.91;10259008;29;20039;-73
2023/07/04 12:12:24;;;;;;;3.47;2.47;;;;;;;26.50;57.62;101256.47;10241224;29;20035;-72
2023/07/04 12:17:25;;;;;;;7.33;2.73;;;;;;;26.88;54.06;101246.25;10256010;29;20035;-72
2023/07/04 12:22:25;;;;;;;1.88;1.77;;;;;;;27.12;56.60;101246.19;10256193;29;20028;-72
2023/07/04 12:27:29;;;;;;;11.93;2.60;;;;;;;26.97;61.85;101238.91;10257150;29;20050;-73
2023/07/04 12:32:34;;;;;;;3.92;2.83;;;;;;;26.77;58.09;101242.81;10256014;28;20118;-72
2023/07/04 12:37:39;;;;;;;7.22;2.70;;;;;;;26.70;49.90;101241.50;10239468;29;20039;-72
2023/07/04 12:42:40;;;;;;;2.55;2.03;;;;;;;26.10;50.14;101237.19;10239954;29;20027;-72
2023/07/04 12:47:40;;;;;;;1.92;1.75;;;;;;;26.16;53.54;101241.56;10254671;29;20035;-72
2023/07/04 12:52:41;;;;;;;11.15;2.42;;;;;;;26.68;50.84;101227.91;10223227;29;20051;-72
2023/07/04 12:57:41;;;;;;;5.95;2.22;;;;;;;27.07;48.98;101227.63;10238335;29;20035;-73
2023/07/04 13:02:45;;;;;;;2.35;2.00;;;;;;;26.85;52.11;101225.44;10254647;28;20125;-73
2023/07/04 13:07:48;;;;;;;3.25;2.08;;;;;;;27.00;49.16;101209.69;10253982;28;20035;-73
2023/07/04 13:12:48;;;;;;;2.03;1.90;;;;;;;26.66;48.90;101222.63;10237156;29;20035;-73
2023/07/04 13:18:02;;;;;;;3.53;1.60;;;;;;;26.14;48.81;101231.88;10254874;29;20423;-73
2023/07/04 13:23:25;;;;;;;2.40;2.20;;;;;;;26.20;44.35;101231.50;10252819;29;20156;-73
2023/07/04 13:28:27;;;;;;;1.92;1.73;;;;;;;25.41;46.73;101224.47;10254678;28;20031;-73
2023/07/04 13:33:33;;;;;;;2.75;2.20;;;;;;;24.95;45.21;101225.59;10252907;29;20042;-73
2023/07/04 13:38:33;;;;;;;1.85;1.75;;;;;;;24.27;52.38;101208.69;10254018;29;20526;-73
2023/07/04 13:43:35;;;;;;;7.75;1.63;;;;;;;24.22;50.46;101219.75;10256853;28;20186;-73
2023/07/04 13:48:35;;;;;;;2.10;2.00;;;;;;;25.44;48.02;101213.63;10251761;29;20110;-73
2023/07/04 13:53:36;;;;;;;2.13;1.75;;;;;;;26.06;46.77;101213.88;10252865;28;20051;-73
2023/07/04 13:58:38;;;;;;;1.75;1.65;;;;;;;25.60;49.55;101214.31;10253284;28;20388;-73
2023/07/04 14:03:39;;;;;;;2.10;1.75;;;;;;;24.89;44.83;101203.72;10254018;28;20134;-73
2023/07/04 14:08:39;;;;;;;1.75;1.65;;;;;;;24.89;48.92;101217.56;10251971;29;20118;-73
2023/07/04 14:13:40;;;;;;;2.10;1.92;;;;;;;24.72;47.36;101210.47;10252072;28;20039;-73
2023/07/04 14:18:40;;;;;;;2.33;2.00;;;;;;;24.43;50.98;101210.31;10250517;28;20039;-73
2023/07/04 14:23:41;;;;;;;3.50;3.03;;;;;;;23.89;48.69;101211.81;10252489;29;20035;-73
2023/07/04 14:28:41;;;;;;;3.72;2.42;;;;;;;23.80;53.52;101205.22;10251035;29;20035;-73
2023/07/04 14:33:42;;;;;;;7.47;2.17;;;;;;;23.88;51.07;101198.28;10252934;28;20027;-73
2023/07/04 14:38:43;;;;;;;5.43;1.95;;;;;;;23.96;52.13;101188.56;10251327;28;20081;-73
2023/07/04 14:43:43;;;;;;;2.22;2.03;;;;;;;23.87;53.39;101189.16;10250333;29;20122;-73
2023/07/04 14:48:43;;;;;;;4.75;3.17;;;;;;;23.74;51.44;101184.22;10249889;29;20380;-73
2023/07/04 14:53:44;;;;;;;5.20;3.30;;;;;;;23.90;52.08;101183.06;10250540;29;20051;-73
2023/07/04 14:58:45;;;;;;;3.22;2.60;;;;;;;24.08;54.24;101169.72;10249949;29;20047;-73
2023/07/04 15:03:45;;;;;;;9.98;3.72;;;;;;;24.54;54.43;101158.50;10251577;28;20177;-73
2023/07/04 15:08:46;;;;;;;5.07;3.28;;;;;;;24.49;53.96;101148.28;10249818;29;20091;-73
2023/07/04 15:13:46;;;;;;;4.03;2.65;;;;;;;24.24;52.68;101145.59;10233004;29;20043;-73
2023/07/04 15:18:47;;;;;;;5.57;3.33;;;;;;;24.48;53.20;101148.56;10250849;28;20132;-73
2023/07/04 15:23:48;;;;;;;2.53;2.33;;;;;;;24.23;50.66;101141.19;10248888;29;20054;-73
2023/07/04 15:28:48;;;;;;;4.13;3.60;;;;;;;24.29;54.35;101140.88;10236373;28;20027;-73
2023/07/04 15:33:50;;;;;;;3.35;3.05;;;;;;;24.10;54.24;101129.63;10258057;29;20448;-74
2023/07/04 15:38:51;;;;;;;4.78;3.60;;;;;;;23.74;53.38;101120.63;10255940;29;20039;-74
2023/07/04 15:43:51;;;;;;;2.83;2.60;;;;;;;23.34;54.30;101111.22;10256033;29;20391;-73
2023/07/04 15:48:51;;;;;;;8.63;3.20;;;;;;;23.25;57.16;101099.09;10224290;29;20499;-73
2023/07/04 15:53:52;;;;;;;4.65;4.03;;;;;;;23.34;55.85;101102.94;10257134;29;20059;-73
2023/07/04 15:58:52;;;;;;;6.40;3.05;;;;;;;23.40;56.05;101095.47;10256141;29;20073;-73
2023/07/04 16:03:57;;;;;;;3.28;2.83;;;;;;;23.36;56.12;101086.94;10239309;29;20082;-73
2023/07/04 16:08:57;;;;;;;5.68;3.38;;;;;;;22.97;56.25;101090.28;10256780;28;20089;-73
2023/07/04 16:13:57;;;;;;;13.85;2.97;;;;;;;22.72;59.28;101077.25;10256304;29;20352;-72
2023/07/04 16:18:58;;;;;;;6.45;2.80;;;;;;;22.71;59.46;101066.47;10256487;29;20074;-73
2023/07/04 16:23:58;;;;;;;3.10;2.35;;;;;;;22.88;60.73;101074.50;10256174;28;20039;-73
2023/07/04 16:28:58;;;;;;;8.30;3.38;;;;;;;22.78;60.09;101058.72;10256532;29;20043;-74
2023/07/04 16:33:59;;;;;;;4.13;2.72;;;;;;;22.47;58.69;101050.44;10239271;29;20059;-73
2023/07/04 16:38:59;;;;;;;3.63;2.63;;;;;;;22.45;60.13;101065.59;10255958;28;20071;-73
2023/07/04 16:44:00;;;;;;;8.05;3.60;;;;;;;22.28;60.74;101052.88;10256658;29;20046;-73
2023/07/04 16:49:00;;;;;;;5.35;2.92;;;;;;;21.85;60.20;101040.28;10255358;29;20103;-73
2023/07/04 16:54:00;;;;;;;14.77;3.22;;;;;;;21.76;60.46;101037.22;10256115;29;20062;-73
2023/07/04 16:59:01;;;;;;;8.98;2.42;;;;;;;21.81;61.46;101036.41;10256100;29;20118;-73
2023/07/04 17:04:01;;;;;;;2.92;2.47;;;;;;;21.74;63.32;101031.13;10254522;29;20038;-73
2023/07/04 17:09:03;;;;;;;6.93;3.15;;;;;;;21.68;61.95;101028.63;10269244;28;20071;-73
2023/07/04 17:14:03;;;;;;;6.53;3.15;;;;;;;21.60;62.09;101027.19;10253126;29;20070;-73
2023/07/04 17:19:03;;;;;;;9.48;4.18;;;;;;;21.26;59.81;101023.97;10253664;29;20444;-73
2023/07/04 17:24:04;;;;;;;5.47;2.42;;;;;;;21.18;61.26;101013.44;10252832;29;20046;-73
2023/07/04 17:29:05;;;;;;;4.68;3.42;;;;;;;21.08;62.21;101009.50;10253013;28;20479;-73
2023/07/04 17:34:05;;;;;;;5.45;3.15;;;;;;;21.00;61.67;101007.28;10253524;28;20054;-74
2023/07/04 17:39:06;;;;;;;7.10;3.45;;;;;;;20.78;62.41;100999.13;10268960;28;20035;-73
2023/07/04 17:44:06;;;;;;;5.35;3.35;;;;;;;20.53;63.62;101002.47;10252407;29;20475;-73
2023/07/04 17:49:07;;;;;;;12.38;2.88;;;;;;;20.37;62.45;100986.91;10253892;29;20070;-73
2023/07/04 17:54:08;;;;;;;2.83;2.45;;;;;;;20.33;62.70;100983.84;10252340;28;20122;-73
2023/07/04 17:59:10;;;;;;;14.02;3.55;;;;;;;20.25;62.05;100975.22;10252346;28;20479;-73
2023/07/04 18:04:10;;;;;;;7.60;4.22;;;;;;;20.22;62.91;100965.56;10236685;29;20106;-73
2023/07/04 18:09:11;;;;;;;5.80;2.53;;;;;;;20.19;62.96;100958.66;10252951;29;20133;-73
2023/07/04 18:14:13;;;;;;;3.47;3.17;;;;;;;20.09;64.94;100955.00;10252187;28;20043;-73
2023/07/04 18:19:13;;;;;;;3.75;3.45;;;;;;;20.02;65.29;100949.72;10251038;29;20039;-73
2023/07/04 18:24:13;;;;;;;4.82;3.72;;;;;;;19.96;65.86;100939.75;10251385;29;20377;-73
2023/07/04 18:29:14;;;;;;;11.82;3.17;;;;;;;19.92;66.56;100933.13;10252159;29;20075;-73
2023/07/04 18:34:14;;;;;;;8.57;3.33;;;;;;;19.90;65.94;100927.88;10249484;29;20248;-73
2023/07/04 18:39:15;;;;;;;3.25;2.97;;;;;;;19.83;67.21;100921.75;10250677;28;20075;-72
2023/07/04 18:44:15;;;;;;;4.20;2.85;;;;;;;19.82;66.96;100913.78;10252102;29;20478;-74
2023/07/04 18:49:16;;;;;;;6.68;4.00;;;;;;;19.77;69.26;100895.31;10251394;28;20063;-74
2023/07/04 18:54:17;;;;;;;16.73;3.45;;;;;;;19.74;69.79;100893.91;10234120;29;20142;-78
2023/07/04 18:59:18;;;;;;;9.10;3.95;;;;;;;19.63;69.41;100894.88;10254517;28;20094;-74
2023/07/04 19:04:19;;;;;;;9.95;3.33;;;;;;;19.58;68.49;100886.56;10256757;28;20081;-74
2023/07/04 19:09:19;;;;;;;15.93;3.88;;;;;;;19.51;71.36;100883.19;10259352;29;20155;-74
2023/07/04 19:14:21;;;;;;;3.47;2.40;;;;;;;19.48;71.53;100876.28;10275196;28;20035;-75
2023/07/04 19:19:43;;;;;;;5.90;3.35;;;;;;;19.51;72.80;100863.97;10258869;29;20324;-74
2023/07/04 19:24:45;;;;;;;6.90;3.08;;;;;;;19.43;73.80;100862.50;10259812;29;20087;-72
2023/07/04 19:29:45;;;;;;;3.95;3.55;;;;;;;19.41;74.93;100853.69;10258518;29;20114;-74
2023/07/04 19:34:46;;;;;;;5.93;3.05;;;;;;;19.34;76.73;100846.75;10256285;29;20090;-75
2023/07/04 19:39:46;;;;;;;6.63;3.90;;;;;;;19.20;77.44;100824.34;10257376;28;20096;-75
2023/07/04 19:44:47;;;;;;;4.72;3.08;;;;;;;19.08;78.66;100816.25;10257524;29;20086;-74
2023/07/04 19:49:47;;;;;;;7.43;3.33;;;;;;;19.06;80.30;100821.16;10257252;29;20134;-72
2023/07/04 19:54:48;;;;;;;21.88;5.35;;;;;;;18.94;80.60;100810.31;10256175;29;20399;-73
2023/07/04 19:59:49;;;;;;;10.27;4.20;;;;;;;18.90;83.11;100795.44;10256602;29;20043;-72
2023/07/04 20:04:52;;;;;;;6.90;3.33;;;;;;;18.80;83.38;100784.34;10256022;28;20452;-75
2023/07/04 20:09:52;;;;;;;7.30;3.95;;;;;;;18.67;84.21;100766.31;10255568;29;20035;-74
2023/07/04 20:14:53;;;;;;;5.50;3.78;;;;;;;18.59;85.44;100764.84;10239410;28;20348;-70
2023/07/04 20:19:54;;;;;;;9.57;4.50;;;;;;;18.39;86.91;100769.22;10240957;29;20070;-71
2023/07/04 20:24:54;;;;;;;9.30;4.70;;;;;;;18.13;91.24;100764.19;10254822;29;20054;-70
2023/07/04 20:29:55;;;;;;;16.70;4.40;;;;;;;18.10;95.82;100759.22;10256341;28;20074;-70
2023/07/04 20:34:55;;;;;;;7.88;4.00;;;;;;;18.11;97.71;100769.09;10255784;28;20112;-68
2023/07/04 20:39:56;;;;;;;9.73;4.95;;;;;;;18.08;99.11;100744.09;10238497;29;20073;-69
2023/07/04 20:44:56;;;;;;;12.30;6.00;;;;;;;17.94;100.00;100737.31;10255726;28;20050;-69
2023/07/04 20:49:56;;;;;;;14.70;6.38;;;;;;;17.75;100.00;100732.06;10254816;28;20058;-68
2023/07/04 20:54:58;;;;;;;7.72;6.30;;;;;;;17.58;100.00;100731.22;10256129;28;20051;-68
2023/07/04 21:00:00;;;;;;;8.50;5.03;;;;;;;17.53;100.00;100712.81;10256255;28;20086;-69
2023/07/04 21:05:00;;;;;;;7.68;4.18;;;;;;;17.61;100.00;100693.25;10237923;29;20035;-70
2023/07/04 21:10:00;;;;;;;10.20;5.15;;;;;;;17.52;100.00;100686.50;10255756;29;20057;-69
2023/07/04 21:15:02;;;;;;;7.57;5.70;;;;;;;17.52;100.00;100674.75;10253136;29;20035;-69
2023/07/04 21:20:05;;;;;;;7.43;4.82;;;;;;;17.52;100.00;100647.34;10254721;28;20526;-69
2023/07/04 21:25:06;;;;;;;15.30;6.38;;;;;;;17.28;100.00;100633.81;10252569;28;20042;-69
2023/07/04 21:30:07;;;;;;;14.07;5.22;;;;;;;16.81;100.00;100647.75;10253856;28;20040;-68
2023/07/04 21:35:07;;;;;;;10.45;6.70;;;;;;;16.67;100.00;100630.81;10253501;28;20110;-69
2023/07/04 21:40:08;;;;;;;10.30;5.60;;;;;;;16.38;100.00;100613.56;10252525;29;20110;-70
2023/07/04 21:45:09;;;;;;;11.55;5.75;;;;;;;16.06;100.00;100594.06;10252012;29;20472;-71
2023/07/04 21:50:09;;;;;;;9.30;6.78;;;;;;;15.95;100.00;100575.78;10267736;28;20051;-70
2023/07/04 21:55:10;;;;;;;10.95;5.70;;;;;;;15.81;100.00;100576.06;10251825;29;20114;-71
2023/07/04 22:00:11;;;;;;;15.75;5.03;;;;;;;15.74;100.00;100564.44;10251330;29;20039;-70
2023/07/04 22:05:11;;;;;;;13.25;7.70;;;;;;;15.77;100.00;100563.16;10251948;29;20039;-70
2023/07/04 22:10:14;;;;;;;12.25;6.63;;;;;;;15.87;100.00;100577.00;10252992;28;20035;-69
2023/07/04 22:15:15;;;;;;;11.85;7.65;;;;;;;15.61;100.00;100553.75;10252708;28;20202;-66
2023/07/04 22:20:15;;;;;;;24.02;6.80;;;;;;;15.40;100.00;100538.81;10252636;28;20083;-64
2023/07/04 22:25:16;;;;;;;7.85;6.90;;;;;;;15.37;100.00;100506.53;10251505;28;20090;-65
2023/07/04 22:30:16;;;;;;;6.97;6.32;;;;;;;15.29;100.00;100485.09;10251855;28;20377;-65
2023/07/04 22:35:17;;;;;;;12.07;6.55;;;;;;;15.22;100.00;100476.19;10250407;29;20114;-64
2023/07/04 22:40:18;;;;;;;12.38;7.13;;;;;;;15.17;100.00;100457.00;10249750;28;20080;-64
2023/07/04 22:45:18;;;;;;;13.25;7.82;;;;;;;15.03;100.00;100440.91;10252428;29;20034;-63
2023/07/04 22:50:20;;;;;;;10.57;7.18;;;;;;;15.04;100.00;100428.91;10253793;29;20126;-62
2023/07/04 22:55:20;;;;;;;17.63;6.78;;;;;;;15.02;100.00;100424.75;10249545;29;20055;-62